createdAt,value
2022-11-24T00:01:21.004Z,5.30
2022-11-24T00:03:55.033Z,5.40
2022-11-24T00:06:23.619Z,5.20
2022-11-24T00:08:52.286Z,5.10
2022-11-24T00:11:26.443Z,5.20
2022-11-24T00:13:54.693Z,5.10
2022-11-24T00:16:25.065Z,5.20
2022-11-24T00:18:55.208Z,5.30
2022-11-24T00:21:23.822Z,5.20
2022-11-24T00:23:52.160Z,5.30
2022-11-24T00:26:22.650Z,5.20
2022-11-24T00:28:53.395Z,5.00
2022-11-24T00:31:32.766Z,5.10
2022-11-24T00:34:03.723Z,5.20
2022-11-24T00:36:34.293Z,5.20
2022-11-24T00:39:08.338Z,4.90
2022-11-24T00:41:35.976Z,5.30
2022-11-24T00:44:04.175Z,5.40
2022-11-24T00:46:32.039Z,5.30
2022-11-24T00:49:02.619Z,5.00
2022-11-24T00:51:30.931Z,5.10
2022-11-24T00:53:59.956Z,5.10
2022-11-24T00:56:29.544Z,4.90
2022-11-24T00:58:57.344Z,5.30
2022-11-24T01:01:27.850Z,5.20
2022-11-24T01:03:56.486Z,5.60
2022-11-24T01:06:26.125Z,5.40
2022-11-24T01:08:54.231Z,4.70
2022-11-24T01:11:28.422Z,5.10
2022-11-24T01:13:58.665Z,5.40
2022-11-24T01:16:31.205Z,5.40
2022-11-24T01:18:59.084Z,5.40
2022-11-24T01:21:27.154Z,5.30
2022-11-24T01:23:54.746Z,5.50
2022-11-24T01:26:23.145Z,5.70
2022-11-24T01:28:55.436Z,5.40
2022-11-24T01:31:24.164Z,5.60
2022-11-24T01:33:52.398Z,5.10
2022-11-24T01:36:20.399Z,5.60
2022-11-24T01:38:48.285Z,5.20
2022-11-24T01:41:24.542Z,5.20
2022-11-24T01:43:54.086Z,5.40
2022-11-24T01:46:21.679Z,5.80
2022-11-24T01:49:01.744Z,5.60
2022-11-24T01:51:33.602Z,5.60
2022-11-24T01:54:07.122Z,6.00
2022-11-24T01:56:40.273Z,5.60
2022-11-24T01:59:11.790Z,5.80
2022-11-24T02:01:40.221Z,5.50
2022-11-24T02:04:12.792Z,5.30
2022-11-24T02:06:43.716Z,5.90
2022-11-24T02:09:19.123Z,5.40
2022-11-24T02:11:47.209Z,5.30
2022-11-24T02:14:17.959Z,5.30
2022-11-24T02:16:49.980Z,5.40
2022-11-24T02:19:39.372Z,4.90
2022-11-24T02:22:31.316Z,5.20
2022-11-24T02:25:18.001Z,5.90
2022-11-24T02:27:50.707Z,5.30
2022-11-24T02:30:22.327Z,5.40
2022-11-24T02:32:51.200Z,5.40
2022-11-24T02:35:20.396Z,5.40
2022-11-24T02:37:48.577Z,5.50
2022-11-24T02:40:22.995Z,5.20
2022-11-24T02:42:54.720Z,5.30
2022-11-24T02:45:24.161Z,5.00
2022-11-24T02:47:51.842Z,5.50
2022-11-24T02:50:19.736Z,5.20
2022-11-24T02:52:47.298Z,5.60
2022-11-24T02:55:15.000Z,5.10
2022-11-24T02:57:42.822Z,5.30
2022-11-24T03:00:11.689Z,5.70
2022-11-24T03:02:40.479Z,5.20
2022-11-24T03:05:08.810Z,5.30
2022-11-24T03:07:36.463Z,5.70
2022-11-24T03:10:04.860Z,6.00
2022-11-24T03:12:32.463Z,5.70
2022-11-24T03:15:00.043Z,5.90
2022-11-24T03:17:27.849Z,5.40
2022-11-24T03:19:58.027Z,5.70
2022-11-24T03:22:29.096Z,6.00
2022-11-24T03:24:56.770Z,5.60
2022-11-24T03:27:24.337Z,6.10
2022-11-24T03:29:51.915Z,5.80
2022-11-24T03:32:19.705Z,5.40
2022-11-24T03:34:47.333Z,5.40
2022-11-24T03:37:15.358Z,6.00
2022-11-24T03:39:42.971Z,5.70
2022-11-24T03:42:10.513Z,5.70
2022-11-24T03:44:38.085Z,5.50
2022-11-24T03:47:05.664Z,5.30
2022-11-24T03:49:33.543Z,5.70
2022-11-24T03:52:06.559Z,6.40
2022-11-24T03:54:35.871Z,5.70
2022-11-24T03:57:03.973Z,6.30
2022-11-24T03:59:31.560Z,5.80
2022-11-24T04:01:59.170Z,5.70
2022-11-24T04:04:26.942Z,5.70
2022-11-24T04:06:54.530Z,5.50
2022-11-24T04:09:22.088Z,5.60
2022-11-24T04:12:05.662Z,5.60
2022-11-24T04:14:33.581Z,5.40
2022-11-24T04:17:04.141Z,6.60
2022-11-24T04:19:31.705Z,7.70
2022-11-24T04:21:59.247Z,6.90
2022-11-24T04:24:26.830Z,5.50
2022-11-24T04:26:54.492Z,5.90
2022-11-24T04:29:22.136Z,6.20
2022-11-24T04:31:49.725Z,5.50
2022-11-24T04:34:17.429Z,6.50
2022-11-24T04:36:45.138Z,6.10
2022-11-24T04:39:19.825Z,5.60
2022-11-24T04:41:52.219Z,5.40
2022-11-24T04:44:20.417Z,5.70
2022-11-24T04:46:48.257Z,5.40
2022-11-24T04:49:16.124Z,5.30
2022-11-24T04:51:43.690Z,5.20
2022-11-24T04:54:12.899Z,6.00
2022-11-24T04:56:41.873Z,5.50
2022-11-24T04:59:14.823Z,5.30
2022-11-24T05:01:43.877Z,5.60
2022-11-24T05:04:13.401Z,6.30
2022-11-24T05:06:41.854Z,5.60
2022-11-24T05:09:14.789Z,6.00
2022-11-24T05:11:42.821Z,5.90
2022-11-24T05:14:10.403Z,5.50
2022-11-24T05:16:38.136Z,5.90
2022-11-24T05:19:05.779Z,6.20
2022-11-24T05:21:33.373Z,6.30
2022-11-24T05:24:00.967Z,5.80
2022-11-24T05:26:28.879Z,5.80
2022-11-24T05:28:56.640Z,6.20
2022-11-24T05:31:24.350Z,6.10
2022-11-24T05:33:53.428Z,5.60
2022-11-24T05:36:36.928Z,5.60
2022-11-24T05:39:04.539Z,5.40
2022-11-24T05:41:32.338Z,5.90
2022-11-24T05:43:59.863Z,6.00
2022-11-24T05:46:27.419Z,6.10
2022-11-24T05:48:55.016Z,5.40
2022-11-24T05:51:22.538Z,5.90
2022-11-24T05:53:50.130Z,6.10
2022-11-24T05:56:17.702Z,6.10
2022-11-24T05:58:45.362Z,5.90
2022-11-24T06:01:13.152Z,5.40
2022-11-24T06:03:41.409Z,5.70
2022-11-24T06:06:08.958Z,5.20
2022-11-24T06:08:36.747Z,5.20
2022-11-24T06:11:17.541Z,5.60
2022-11-24T06:13:48.469Z,5.80
2022-11-24T06:16:16.514Z,5.90
2022-11-24T06:18:44.237Z,5.50
2022-11-24T06:21:12.289Z,5.20
2022-11-24T06:23:40.420Z,5.30
2022-11-24T06:26:09.054Z,4.70
2022-11-24T06:28:36.995Z,4.80
2022-11-24T06:31:05.849Z,5.30
2022-11-24T06:33:36.365Z,5.20
2022-11-24T06:36:07.041Z,5.30
2022-11-24T06:38:36.149Z,5.60
2022-11-24T06:41:11.509Z,5.80
2022-11-24T06:43:39.472Z,5.30
2022-11-24T06:46:07.817Z,5.40
2022-11-24T06:48:36.201Z,5.40
2022-11-24T06:51:06.703Z,5.50
2022-11-24T06:53:37.899Z,5.10
2022-11-24T06:56:16.265Z,4.80
2022-11-24T06:58:47.695Z,5.40
2022-11-24T07:01:26.228Z,4.90
2022-11-24T07:03:55.178Z,5.20
2022-11-24T07:06:25.075Z,4.60
2022-11-24T07:08:53.147Z,4.70
2022-11-24T07:11:23.535Z,5.30
2022-11-24T07:13:55.098Z,5.20
2022-11-24T07:16:28.317Z,5.30
2022-11-24T07:18:56.784Z,5.10
2022-11-24T07:21:25.470Z,5.50
2022-11-24T07:23:56.194Z,5.20
2022-11-24T07:26:25.284Z,5.30
2022-11-24T07:28:52.809Z,4.60
2022-11-24T07:31:24.911Z,4.80
2022-11-24T07:33:54.638Z,5.30
2022-11-24T07:36:25.648Z,5.50
2022-11-24T07:38:53.274Z,5.10
2022-11-24T07:41:21.282Z,5.30
2022-11-24T07:43:50.611Z,5.10
2022-11-24T07:46:19.434Z,5.70
2022-11-24T07:48:47.661Z,7.40
2022-11-24T07:51:15.865Z,7.40
2022-11-24T07:53:45.481Z,5.80
2022-11-24T07:56:13.332Z,5.30
2022-11-24T07:58:40.989Z,5.60
2022-11-24T08:01:14.513Z,5.70
2022-11-24T08:03:43.172Z,5.80
2022-11-24T08:06:32.294Z,5.80
2022-11-24T08:08:59.766Z,5.60
2022-11-24T08:11:27.633Z,5.80
2022-11-24T08:13:55.896Z,5.40
2022-11-24T08:16:23.521Z,5.30
2022-11-24T08:18:55.654Z,5.40
2022-11-24T08:21:24.082Z,5.30
2022-11-24T08:23:56.058Z,5.10
2022-11-24T08:26:25.500Z,5.30
2022-11-24T08:28:59.016Z,5.30
2022-11-24T08:31:33.587Z,5.20
2022-11-24T08:34:04.330Z,5.20
2022-11-24T08:36:33.552Z,5.20
2022-11-24T08:39:01.676Z,5.20
2022-11-24T08:41:30.357Z,5.10
2022-11-24T08:43:58.423Z,5.30
2022-11-24T08:46:26.108Z,5.80
2022-11-24T08:48:54.993Z,5.40
2022-11-24T08:51:26.061Z,5.30
2022-11-24T08:53:55.702Z,5.50
2022-11-24T08:56:24.522Z,5.20
2022-11-24T08:58:53.328Z,5.00
2022-11-24T09:01:23.685Z,5.20
2022-11-24T09:03:52.246Z,5.30
2022-11-24T09:06:23.632Z,5.20
2022-11-24T09:08:53.388Z,5.20
2022-11-24T09:11:21.717Z,5.30
2022-11-24T09:13:49.839Z,7.10
2022-11-24T09:16:20.442Z,5.40
2022-11-24T09:18:54.279Z,5.10
2022-11-24T09:21:22.698Z,5.20
2022-11-24T09:23:51.809Z,5.10
2022-11-24T09:26:25.444Z,5.30
2022-11-24T09:28:54.499Z,5.10
2022-11-24T09:31:28.275Z,5.40
2022-11-24T09:33:56.489Z,5.50
2022-11-24T09:36:24.628Z,5.30
2022-11-24T09:38:52.645Z,5.10
2022-11-24T09:41:52.106Z,5.60
2022-11-24T09:44:50.523Z,6.00
2022-11-24T09:47:49.993Z,5.60
2022-11-24T09:50:20.976Z,5.40
2022-11-24T09:53:12.435Z,5.40
2022-11-24T09:55:44.056Z,5.10
2022-11-24T09:58:33.742Z,6.00
2022-11-24T10:01:07.962Z,5.10
2022-11-24T10:03:43.247Z,5.40
2022-11-24T10:06:21.436Z,5.30
2022-11-24T10:09:05.077Z,5.50
2022-11-24T10:12:06.905Z,5.10
2022-11-24T10:14:50.526Z,5.00
2022-11-24T10:17:46.387Z,5.00
2022-11-24T10:20:30.386Z,5.30
2022-11-24T10:23:29.885Z,5.60
2022-11-24T10:26:01.448Z,5.20
2022-11-24T10:28:41.304Z,5.30
2022-11-24T10:31:28.153Z,5.10
2022-11-24T10:34:01.088Z,5.50
2022-11-24T10:36:45.440Z,5.40
2022-11-24T10:39:50.606Z,5.10
2022-11-24T10:42:26.004Z,4.80
2022-11-24T10:45:10.655Z,4.70
2022-11-24T10:47:39.377Z,5.00
2022-11-24T10:50:25.442Z,5.10
2022-11-24T10:53:11.561Z,5.00
2022-11-24T10:55:56.236Z,4.70
2022-11-24T10:58:37.270Z,4.70
2022-11-24T11:01:31.039Z,4.90
2022-11-24T11:03:59.885Z,5.30
2022-11-24T11:06:29.498Z,5.20
2022-11-24T11:09:19.436Z,5.40
2022-11-24T11:11:53.386Z,5.40
2022-11-24T11:14:36.453Z,5.60
2022-11-24T11:17:32.646Z,5.60
2022-11-24T11:20:17.721Z,5.30
2022-11-24T11:22:48.022Z,5.40
2022-11-24T11:25:22.672Z,5.10
2022-11-24T11:27:50.726Z,6.90
2022-11-24T11:36:11.771Z,5.20
2022-11-24T11:38:41.438Z,5.30
2022-11-24T11:41:20.715Z,5.30
2022-11-24T11:43:56.755Z,5.10
2022-11-24T11:46:28.905Z,5.30
2022-11-24T11:48:56.586Z,5.00
2022-11-24T11:51:52.073Z,4.90
2022-11-24T11:54:44.661Z,5.10
2022-11-24T11:57:44.293Z,5.00
2022-11-24T12:00:16.068Z,5.40
2022-11-24T12:02:54.272Z,5.20
2022-11-24T12:05:34.537Z,5.20
2022-11-24T12:08:16.020Z,5.10
2022-11-24T12:11:15.905Z,5.20
2022-11-24T12:14:06.321Z,5.00
2022-11-24T12:16:45.553Z,4.80
2022-11-24T12:19:29.105Z,5.00
2022-11-24T12:22:23.142Z,5.10
2022-11-24T12:25:12.431Z,5.40
2022-11-24T12:28:01.911Z,5.10
2022-11-24T12:30:49.378Z,5.10
2022-11-24T12:33:39.456Z,5.10
2022-11-24T12:36:38.949Z,5.60
2022-11-24T12:39:32.756Z,5.40
2022-11-24T12:42:22.004Z,5.10
2022-11-24T12:44:58.274Z,5.10
2022-11-24T12:47:49.280Z,5.20
2022-11-24T12:50:25.189Z,5.10
2022-11-24T12:53:13.749Z,5.50
2022-11-24T12:55:43.229Z,5.30
2022-11-24T12:58:26.845Z,5.40
2022-11-24T13:01:15.918Z,5.50
2022-11-24T13:03:55.162Z,5.50
2022-11-24T13:06:29.989Z,4.90
2022-11-24T13:08:57.857Z,5.00
2022-11-24T13:11:34.610Z,4.90
2022-11-24T13:14:12.614Z,5.20
2022-11-24T13:17:27.524Z,5.30
2022-11-24T13:19:40.288Z,5.10
2022-11-24T13:22:08.003Z,5.80
2022-11-24T13:24:38.356Z,5.70
2022-11-24T13:27:28.883Z,5.40
2022-11-24T13:29:56.558Z,5.40
2022-11-24T13:32:24.144Z,5.80
2022-11-24T13:34:54.954Z,5.30
2022-11-24T13:37:27.296Z,5.30
2022-11-24T13:40:31.034Z,5.40
2022-11-24T13:43:00.300Z,5.40
2022-11-24T13:45:45.185Z,5.30
2022-11-24T13:48:18.745Z,5.10
2022-11-24T13:50:58.304Z,5.60
2022-11-24T13:53:32.939Z,4.60
2022-11-24T13:56:17.418Z,5.10
2022-11-24T13:58:50.537Z,5.30
2022-11-24T14:01:26.071Z,5.40
2022-11-24T14:07:08.376Z,5.40
2022-11-24T14:09:47.958Z,5.50
2022-11-24T14:12:20.788Z,4.90
2022-11-24T14:14:50.543Z,5.10
2022-11-24T14:17:26.609Z,5.70
2022-11-24T14:19:59.305Z,5.20
2022-11-24T14:22:39.324Z,5.20
2022-11-24T14:25:21.316Z,4.90
2022-11-24T14:27:48.889Z,5.20
2022-11-24T14:30:22.985Z,4.90
2022-11-24T14:32:58.480Z,5.10
2022-11-24T14:35:34.981Z,5.10
2022-11-24T14:38:05.372Z,5.10
2022-11-24T14:41:13.252Z,5.40
2022-11-24T14:43:40.833Z,5.20
2022-11-24T14:46:17.586Z,5.40
2022-11-24T14:48:51.481Z,5.10
2022-11-24T14:53:58.364Z,4.90
2022-11-24T14:56:36.184Z,5.90
2022-11-24T14:59:19.962Z,5.20
2022-11-24T15:01:47.578Z,5.50
2022-11-24T15:04:54.185Z,7.20
2022-11-24T15:07:23.646Z,5.60
2022-11-24T15:10:00.755Z,5.10
2022-11-24T15:12:34.243Z,5.80
2022-11-24T15:15:20.361Z,5.20
2022-11-24T15:17:51.052Z,6.00
2022-11-24T15:20:41.579Z,5.80
2022-11-24T15:23:18.712Z,5.20
2022-11-24T15:25:46.482Z,5.20
2022-11-24T15:28:14.070Z,5.30
2022-11-24T15:30:42.048Z,6.00
2022-11-24T15:33:15.472Z,4.50
2022-11-24T15:35:44.174Z,4.80
2022-11-24T15:38:12.593Z,5.40
2022-11-24T15:40:43.610Z,5.20
2022-11-24T15:43:19.171Z,5.00
2022-11-24T15:45:46.723Z,5.40
2022-11-24T15:48:17.930Z,5.90
2022-11-24T15:50:46.956Z,5.60
2022-11-24T15:53:24.497Z,5.60
2022-11-24T15:55:53.003Z,5.40
2022-11-24T15:58:20.496Z,5.30
2022-11-24T16:00:48.068Z,5.10
2022-11-24T16:03:45.827Z,5.00
2022-11-24T16:06:03.246Z,5.10
2022-11-24T16:08:30.947Z,5.70
2022-11-24T16:10:58.442Z,5.10
2022-11-24T16:13:25.990Z,5.50
2022-11-24T16:15:53.715Z,5.30
2022-11-24T16:18:21.262Z,4.90
2022-11-24T16:20:48.985Z,5.00
2022-11-24T16:23:16.478Z,5.00
2022-11-24T16:25:44.004Z,5.10
2022-11-24T16:28:11.677Z,5.00
2022-11-24T16:30:39.389Z,5.00
2022-11-24T16:33:07.282Z,5.00
2022-11-24T16:35:35.014Z,5.10
2022-11-24T16:38:02.548Z,5.40
2022-11-24T16:40:30.305Z,5.20
2022-11-24T16:42:58.424Z,5.30
2022-11-24T16:45:26.100Z,5.50
2022-11-24T16:47:54.037Z,5.40
2022-11-24T16:50:21.576Z,5.20
2022-11-24T16:52:49.121Z,5.20
2022-11-24T16:55:16.939Z,5.10
2022-11-24T16:57:45.112Z,5.30
2022-11-24T17:00:13.374Z,5.40
2022-11-24T17:02:41.010Z,5.70
2022-11-24T17:05:08.942Z,5.50
2022-11-24T17:07:37.022Z,5.70
2022-11-24T17:10:06.041Z,5.80
2022-11-24T17:12:35.428Z,5.80
2022-11-24T17:15:31.146Z,5.90
2022-11-24T17:18:22.207Z,6.00
2022-11-24T17:20:38.999Z,5.90
2022-11-24T17:23:06.554Z,6.10
2022-11-24T17:25:34.092Z,5.40
2022-11-24T17:28:01.628Z,5.50
2022-11-24T17:30:29.227Z,5.40
2022-11-24T17:32:57.164Z,5.80
2022-11-24T17:35:24.682Z,5.40
2022-11-24T17:37:52.274Z,5.20
2022-11-24T17:40:28.391Z,5.80
2022-11-24T17:43:00.509Z,5.40
2022-11-24T17:45:29.331Z,5.70
2022-11-24T17:47:59.710Z,5.60
2022-11-24T17:50:27.366Z,5.70
2022-11-24T17:52:55.222Z,5.80
2022-11-24T17:55:22.755Z,6.20
2022-11-24T17:57:50.514Z,6.10
2022-11-24T18:00:18.402Z,5.40
2022-11-24T18:02:45.935Z,6.00
2022-11-24T18:05:13.779Z,5.60
2022-11-24T18:07:41.376Z,5.70
2022-11-24T18:10:09.236Z,5.10
2022-11-24T18:12:36.806Z,5.90
2022-11-24T18:15:04.988Z,5.60
2022-11-24T18:17:32.540Z,5.40
2022-11-24T18:20:00.059Z,5.70
2022-11-24T18:22:50.077Z,4.80
2022-11-24T18:25:15.354Z,5.30
2022-11-24T18:27:42.890Z,5.30
2022-11-24T18:30:10.628Z,5.30
2022-11-24T18:32:38.627Z,5.60
2022-11-24T18:35:06.716Z,5.60
2022-11-24T18:37:36.581Z,5.50
2022-11-24T18:40:04.707Z,5.70
2022-11-24T18:42:32.233Z,5.50
2022-11-24T18:44:59.812Z,5.70
2022-11-24T18:47:27.583Z,5.30
2022-11-24T18:49:55.538Z,5.90
2022-11-24T18:52:23.119Z,5.80
2022-11-24T18:54:50.680Z,5.20
2022-11-24T18:57:18.188Z,6.10
2022-11-24T18:59:45.972Z,6.40
2022-11-24T19:02:13.584Z,6.70
2022-11-24T19:04:41.352Z,6.40
2022-11-24T19:07:08.897Z,5.80
2022-11-24T19:09:37.703Z,5.80
2022-11-24T19:12:06.332Z,6.30
2022-11-24T19:14:34.385Z,6.00
2022-11-24T19:17:02.540Z,5.70
2022-11-24T19:19:34.001Z,5.70
2022-11-24T19:22:02.092Z,6.00
2022-11-24T19:24:30.089Z,5.80
2022-11-24T19:26:57.660Z,5.60
2022-11-24T19:29:25.238Z,5.90
2022-11-24T19:31:54.292Z,5.80
2022-11-24T19:34:21.824Z,5.50
2022-11-24T19:36:49.378Z,6.00
2022-11-24T19:39:17.560Z,5.90
2022-11-24T19:41:45.143Z,6.50
2022-11-24T19:44:13.377Z,6.60
2022-11-24T19:46:41.062Z,6.30
2022-11-24T19:49:08.769Z,6.00
2022-11-24T19:51:38.943Z,6.20
2022-11-24T19:54:10.093Z,5.50
2022-11-24T19:56:37.850Z,5.90
2022-11-24T19:59:06.416Z,6.30
2022-11-24T20:01:40.047Z,6.20
2022-11-24T20:04:11.278Z,5.70
2022-11-24T20:06:43.904Z,6.60
2022-11-24T20:09:14.334Z,6.30
2022-11-24T20:11:42.367Z,6.50
2022-11-24T20:14:12.882Z,6.60
2022-11-24T20:16:40.629Z,6.50
2022-11-24T20:19:11.862Z,6.30
2022-11-24T20:21:41.439Z,7.70
2022-11-24T20:24:17.975Z,7.20
2022-11-24T20:26:58.084Z,7.20
2022-11-24T20:29:28.146Z,6.70
2022-11-24T20:31:56.109Z,6.60
2022-11-24T20:34:23.881Z,6.60
2022-11-24T20:36:52.927Z,6.90
2022-11-24T20:39:25.275Z,6.50
2022-11-24T20:41:53.902Z,6.30
2022-11-24T20:44:21.979Z,6.80
2022-11-24T20:46:49.710Z,6.40
2022-11-24T20:49:20.007Z,6.30
2022-11-24T20:51:47.815Z,6.20
2022-11-24T20:54:17.496Z,5.90
2022-11-24T20:56:46.290Z,6.50
2022-11-24T20:59:19.271Z,6.30
2022-11-24T21:01:48.332Z,6.20
2022-11-24T21:04:19.697Z,6.70
2022-11-24T21:06:47.693Z,6.50
2022-11-24T21:09:15.542Z,6.40
2022-11-24T21:11:43.424Z,6.30
2022-11-24T21:14:11.759Z,6.20
2022-11-24T21:16:41.187Z,6.60
2022-11-24T21:19:14.268Z,6.10
2022-11-24T21:21:43.135Z,6.10
2022-11-24T21:24:14.090Z,6.40
2022-11-24T21:26:43.039Z,6.10
2022-11-24T21:29:16.955Z,6.40
2022-11-24T21:34:15.391Z,6.00
2022-11-24T21:36:44.828Z,6.80
2022-11-24T21:39:14.095Z,6.50
2022-11-24T21:41:42.563Z,7.10
2022-11-24T21:44:13.936Z,6.80
2022-11-24T21:46:46.059Z,6.60
2022-11-24T21:49:16.969Z,6.40
2022-11-24T21:51:44.641Z,6.80
2022-11-24T21:54:12.298Z,6.50
2022-11-24T21:56:39.944Z,6.70
2022-11-24T21:59:07.900Z,6.40
2022-11-24T22:01:35.608Z,6.70
2022-11-24T22:04:03.226Z,6.50
2022-11-24T22:06:31.981Z,6.70
2022-11-24T22:08:59.512Z,6.90
2022-11-24T22:11:27.051Z,6.30
2022-11-24T22:13:54.594Z,6.10
2022-11-24T22:16:24.147Z,6.50
2022-11-24T22:18:52.162Z,6.70
2022-11-24T22:21:29.812Z,6.70
2022-11-24T22:23:57.527Z,6.00
2022-11-24T22:26:26.117Z,6.60
2022-11-24T22:28:55.261Z,6.40
2022-11-24T22:31:25.364Z,6.90
2022-11-24T22:33:54.303Z,6.60
2022-11-24T22:36:24.863Z,6.50
2022-11-24T22:39:02.953Z,6.50
2022-11-24T22:41:32.736Z,6.40
2022-11-24T22:44:00.665Z,6.40
2022-11-24T22:46:30.205Z,6.60
2022-11-24T22:48:59.929Z,6.30
2022-11-24T22:51:33.416Z,7.10
2022-11-24T22:54:03.764Z,6.70
2022-11-24T22:56:33.130Z,6.70
2022-11-24T22:59:01.824Z,6.50
2022-11-24T23:01:31.315Z,6.60
2022-11-24T23:03:59.373Z,6.00
2022-11-24T23:06:29.335Z,5.90
2022-11-24T23:08:58.722Z,6.10
2022-11-24T23:11:36.429Z,6.30
2022-11-24T23:14:07.729Z,6.60
2022-11-24T23:16:35.329Z,6.50
2022-11-24T23:19:03.610Z,6.70
2022-11-24T23:21:34.582Z,6.10
2022-11-24T23:24:03.920Z,6.20
2022-11-24T23:26:34.550Z,6.20
2022-11-24T23:29:03.414Z,6.30
2022-11-24T23:31:31.622Z,6.10
2022-11-24T23:34:01.568Z,6.30
2022-11-24T23:36:30.259Z,6.10
2022-11-24T23:39:03.035Z,6.60
2022-11-24T23:41:31.601Z,6.50
2022-11-24T23:43:59.932Z,5.80
2022-11-24T23:46:28.022Z,6.40
2022-11-24T23:48:56.620Z,6.00
2022-11-24T23:51:25.565Z,5.30
2022-11-24T23:53:53.525Z,5.90
2022-11-24T23:56:26.019Z,5.90
2022-11-24T23:58:53.822Z,5.60
